Time,TemperatureF,DewpointF,PressureIn,WindDirection,WindDirectionDegrees,WindSpeedMPH,WindSpeedGustMPH,Humidity,HourlyPrecipIn,Conditions,Clouds,dailyrainin,SolarRadiationWatts/m^2,SoftwareType,DateUTC
2013-10-12 00:43:00,73.0,70.0,-100.00,SSE,162,3.0,6.0,90,0.00,,,0.00,0.000000,,2013-10-12 05:43:00,
2013-10-12 00:52:00,73.0,70.0,-100.00,SSE,162,3.0,6.0,90,0.00,,,0.00,0.000000,,2013-10-12 05:52:00,
2013-10-12 01:02:00,73.0,70.0,-100.00,SSE,162,3.0,6.0,90,0.00,,,0.00,0.000000,,2013-10-12 06:02:00,
2013-10-12 01:42:00,72.0,70.0,-100.00,SE,139,2.0,5.0,94,0.00,,,0.00,0.000000,,2013-10-12 06:42:00,
2013-10-12 01:52:00,72.0,70.0,-100.00,SE,139,2.0,5.0,94,0.00,,,0.00,0.000000,,2013-10-12 06:52:00,
2013-10-12 02:02:00,72.0,70.0,-100.00,SE,139,2.0,5.0,94,0.00,,,0.00,0.000000,,2013-10-12 07:02:00,
2013-10-12 02:22:00,71.0,70.0,-100.00,East,87,0.0,3.0,97,0.00,,,0.00,0.000000,,2013-10-12 07:22:00,
2013-10-12 02:32:00,71.0,70.0,-100.00,East,87,0.0,3.0,97,0.00,,,0.00,0.000000,,2013-10-12 07:32:00,
2013-10-12 02:42:00,71.0,70.0,-100.00,East,87,0.0,3.0,97,0.00,,,0.00,0.000000,,2013-10-12 07:42:00,
2013-10-12 02:52:00,71.0,70.0,-100.00,East,87,0.0,3.0,97,0.00,,,0.00,0.000000,,2013-10-12 07:52:00,
2013-10-12 03:02:00,71.0,70.0,-100.00,East,87,0.0,3.0,97,0.00,,,0.00,0.000000,,2013-10-12 08:02:00,
2013-10-12 03:23:00,71.0,70.0,-100.00,East,101,0.0,1.0,98,0.00,,,0.00,0.000000,,2013-10-12 08:23:00,
2013-10-12 03:32:00,71.0,70.0,-100.00,East,101,0.0,1.0,98,0.00,,,0.00,0.000000,,2013-10-12 08:32:00,
2013-10-12 03:42:00,71.0,70.0,-100.00,East,101,0.0,1.0,98,0.00,,,0.00,0.000000,,2013-10-12 08:42:00,
2013-10-12 03:52:00,71.0,70.0,-100.00,East,101,0.0,1.0,98,0.00,,,0.00,0.000000,,2013-10-12 08:52:00,
2013-10-12 04:02:00,71.0,70.0,-100.00,East,101,0.0,1.0,98,0.00,,,0.00,0.000000,,2013-10-12 09:02:00,
2013-10-12 04:03:00,72.0,71.0,-100.00,East,85,0.0,0.0,98,0.00,,,0.00,0.000000,,2013-10-12 09:03:00,
2013-10-12 04:22:00,72.0,71.0,-100.00,East,85,0.0,0.0,98,0.00,,,0.00,0.000000,,2013-10-12 09:22:00,
2013-10-12 04:33:00,72.0,71.0,-100.00,East,85,0.0,0.0,98,0.00,,,0.00,0.000000,,2013-10-12 09:33:00,
2013-10-12 04:43:00,72.0,71.0,-100.00,East,85,0.0,0.0,98,0.00,,,0.00,0.000000,,2013-10-12 09:43:00,
2013-10-12 04:54:00,72.0,71.0,-100.00,East,85,0.0,0.0,98,0.00,,,0.00,0.000000,,2013-10-12 09:54:00,
2013-10-12 05:42:00,72.0,71.0,-100.00,SE,133,0.0,0.0,98,0.00,,,0.00,0.000000,,2013-10-12 10:42:00,
2013-10-12 05:52:00,72.0,71.0,-100.00,SE,133,0.0,0.0,98,0.00,,,0.00,0.000000,,2013-10-12 10:52:00,
2013-10-12 06:02:00,72.0,71.0,-100.00,SE,133,0.0,0.0,98,0.00,,,0.00,0.000000,,2013-10-12 11:02:00,
2013-10-12 06:42:00,73.0,73.0,-100.00,East,93,0.0,0.0,99,0.00,,,-99.99,0.000000,,2013-10-12 11:42:00,
2013-10-12 06:52:00,73.0,73.0,-100.00,East,93,0.0,0.0,99,0.00,,,-99.99,0.000000,,2013-10-12 11:52:00,
2013-10-12 07:01:00,73.0,73.0,-100.00,East,93,0.0,0.0,99,0.00,,,-99.99,0.000000,,2013-10-12 12:01:00,
2013-10-12 07:42:00,73.0,72.0,-100.00,East,80,0.0,0.0,98,0.00,,,0.00,0.000000,,2013-10-12 12:42:00,
2013-10-12 07:52:00,73.0,72.0,-100.00,East,80,0.0,0.0,98,0.00,,,0.00,0.000000,,2013-10-12 12:52:00,
2013-10-12 08:02:00,73.0,72.0,-100.00,East,80,0.0,0.0,98,0.00,,,0.00,0.000000,,2013-10-12 13:02:00,
2013-10-12 08:42:00,73.0,73.0,-100.00,SSE,150,3.0,6.0,99,0.00,,,0.00,10.000000,,2013-10-12 13:42:00,
2013-10-12 08:52:00,73.0,73.0,-100.00,SSE,150,3.0,6.0,99,0.00,,,0.00,10.000000,,2013-10-12 13:52:00,
2013-10-12 09:02:00,73.0,73.0,-100.00,SSE,150,3.0,6.0,99,0.00,,,0.00,10.000000,,2013-10-12 14:02:00,
2013-10-12 09:42:00,75.0,74.0,-100.00,SSE,161,3.0,6.0,97,0.00,,,0.00,61.000000,,2013-10-12 14:42:00,
2013-10-12 09:52:00,75.0,74.0,-100.00,SSE,161,3.0,6.0,97,0.00,,,0.00,61.000000,,2013-10-12 14:52:00,
2013-10-12 10:02:00,75.0,74.0,-100.00,SSE,161,3.0,6.0,97,0.00,,,0.00,61.000000,,2013-10-12 15:02:00,
2013-10-12 10:03:00,78.0,74.0,-100.00,SSE,160,4.0,9.0,87,0.00,,,0.00,181.000000,,2013-10-12 15:03:00,
2013-10-12 10:22:00,78.0,74.0,-100.00,SSE,160,4.0,9.0,87,0.00,,,0.00,181.000000,,2013-10-12 15:22:00,
2013-10-12 10:33:00,78.0,74.0,-100.00,SSE,160,4.0,9.0,87,0.00,,,0.00,181.000000,,2013-10-12 15:33:00,
2013-10-12 10:44:00,78.0,74.0,-100.00,SSE,160,4.0,9.0,87,0.00,,,0.00,181.000000,,2013-10-12 15:44:00,
2013-10-12 10:54:00,78.0,74.0,-100.00,SSE,160,4.0,9.0,87,0.00,,,0.00,181.000000,,2013-10-12 15:54:00,
2013-10-12 11:03:00,82.0,76.0,-100.00,South,170,4.0,11.0,81,0.00,,,0.00,345.000000,,2013-10-12 16:03:00,
2013-10-12 11:43:00,82.0,76.0,-100.00,South,170,4.0,11.0,81,0.00,,,0.00,345.000000,,2013-10-12 16:43:00,
2013-10-12 11:53:00,82.0,76.0,-100.00,South,170,4.0,11.0,81,0.00,,,0.00,345.000000,,2013-10-12 16:53:00,
2013-10-12 12:42:00,85.0,75.0,-100.00,SSE,164,6.0,10.0,72,0.00,,,0.00,558.000000,,2013-10-12 17:42:00,
2013-10-12 12:53:00,85.0,75.0,-100.00,SSE,164,6.0,10.0,72,0.00,,,0.00,558.000000,,2013-10-12 17:53:00,
2013-10-12 13:02:00,85.0,75.0,-100.00,SSE,164,6.0,10.0,72,0.00,,,0.00,558.000000,,2013-10-12 18:02:00,
2013-10-12 14:03:00,85.0,73.0,-100.00,SE,144,3.0,11.0,67,-99.99,,,0.00,460.000000,,2013-10-12 19:03:00,
2013-10-12 14:42:00,85.0,73.0,-100.00,SE,144,3.0,11.0,67,-99.99,,,0.00,460.000000,,2013-10-12 19:42:00,
2013-10-12 14:52:00,85.0,73.0,-100.00,SE,144,3.0,11.0,67,-99.99,,,0.00,460.000000,,2013-10-12 19:52:00,
2013-10-12 15:43:00,71.0,63.0,-100.00,NW,307,12.0,25.0,77,0.35,,,0.35,20.000000,,2013-10-12 20:43:00,
2013-10-12 15:52:00,71.0,63.0,-100.00,NW,307,12.0,25.0,77,0.35,,,0.35,20.000000,,2013-10-12 20:52:00,
2013-10-12 16:02:00,71.0,63.0,-100.00,NW,307,12.0,25.0,77,0.35,,,0.35,20.000000,,2013-10-12 21:02:00,
2013-10-12 16:03:00,70.0,68.0,-100.00,SSW,201,3.0,27.0,94,0.48,,,0.83,49.000000,,2013-10-12 21:03:00,
2013-10-12 16:22:00,70.0,68.0,-100.00,SSW,201,3.0,27.0,94,0.48,,,0.83,49.000000,,2013-10-12 21:22:00,
2013-10-12 16:35:00,70.0,68.0,-100.00,SSW,201,3.0,27.0,94,0.48,,,0.83,49.000000,,2013-10-12 21:35:00,
2013-10-12 16:43:00,70.0,68.0,-100.00,SSW,201,3.0,27.0,94,0.48,,,0.83,49.000000,,2013-10-12 21:43:00,
2013-10-12 16:54:00,70.0,68.0,-100.00,SSW,201,3.0,27.0,94,0.48,,,0.83,49.000000,,2013-10-12 21:54:00,
2013-10-12 17:43:00,71.0,69.0,-100.00,WNW,303,4.0,11.0,93,0.00,,,0.83,62.000000,,2013-10-12 22:43:00,
2013-10-12 17:54:00,71.0,69.0,-100.00,WNW,303,4.0,11.0,93,0.00,,,0.83,62.000000,,2013-10-12 22:54:00,
2013-10-12 18:02:00,71.0,69.0,-100.00,WNW,303,4.0,11.0,93,0.00,,,0.83,62.000000,,2013-10-12 23:02:00,
2013-10-12 18:22:00,70.0,68.0,-100.00,NW,326,1.0,8.0,95,0.00,,,0.83,4.000000,,2013-10-12 23:22:00,
2013-10-12 18:33:00,70.0,68.0,-100.00,NW,326,1.0,8.0,95,0.00,,,0.83,4.000000,,2013-10-12 23:33:00,
2013-10-12 18:42:00,70.0,68.0,-100.00,NW,326,1.0,8.0,95,0.00,,,0.83,4.000000,,2013-10-12 23:42:00,
2013-10-12 18:52:00,70.0,68.0,-100.00,NW,326,1.0,8.0,95,0.00,,,0.83,4.000000,,2013-10-12 23:52:00,
2013-10-12 19:01:00,70.0,68.0,-100.00,NW,326,1.0,8.0,95,0.00,,,0.83,4.000000,,2013-10-13 00:01:00,
2013-10-12 19:22:00,69.0,67.0,-100.00,ESE,104,4.0,22.0,93,0.09,,,0.92,0.000000,,2013-10-13 00:22:00,
2013-10-12 19:32:00,69.0,67.0,-100.00,ESE,104,4.0,22.0,93,0.09,,,0.92,0.000000,,2013-10-13 00:32:00,
2013-10-12 19:42:00,69.0,67.0,-100.00,ESE,104,4.0,22.0,93,0.09,,,0.92,0.000000,,2013-10-13 00:42:00,
2013-10-12 19:52:00,69.0,67.0,-100.00,ESE,104,4.0,22.0,93,0.09,,,0.92,0.000000,,2013-10-13 00:52:00,
2013-10-12 20:01:00,69.0,67.0,-100.00,ESE,104,4.0,22.0,93,0.09,,,0.92,0.000000,,2013-10-13 01:01:00,
2013-10-12 20:42:00,69.0,68.0,-100.00,SSW,192,4.0,9.0,97,0.07,,,0.99,0.000000,,2013-10-13 01:42:00,
2013-10-12 20:52:00,69.0,68.0,-100.00,SSW,192,4.0,9.0,97,0.07,,,0.99,0.000000,,2013-10-13 01:52:00,
2013-10-12 21:02:00,69.0,68.0,-100.00,SSW,192,4.0,9.0,97,0.07,,,0.99,0.000000,,2013-10-13 02:02:00,
2013-10-12 21:43:00,69.0,68.0,-100.00,South,184,1.0,4.0,97,0.00,,,0.99,0.000000,,2013-10-13 02:43:00,
2013-10-12 21:52:00,69.0,68.0,-100.00,South,184,1.0,4.0,97,0.00,,,0.99,0.000000,,2013-10-13 02:52:00,
2013-10-12 22:02:00,69.0,68.0,-100.00,South,184,1.0,4.0,97,0.00,,,0.99,0.000000,,2013-10-13 03:02:00,
2013-10-12 22:45:00,69.0,68.0,-100.00,NE,52,0.0,1.0,98,0.00,,,0.99,0.000000,,2013-10-13 03:45:00,
2013-10-12 22:54:00,69.0,68.0,-100.00,NE,52,0.0,1.0,98,0.00,,,0.99,0.000000,,2013-10-13 03:54:00,
2013-10-12 23:02:00,-999.0,-99.9,-100.00,NE,52,0.0,1.0,-999,-99.99,,,-99.99,0.000000,,2013-10-13 04:02:00,
2013-10-12 23:03:00,70.0,69.0,-100.00,NE,49,0.0,11.0,97,0.00,,,0.99,0.000000,,2013-10-13 04:03:00,
2013-10-12 23:43:00,70.0,69.0,-100.00,NE,49,0.0,11.0,97,0.00,,,0.99,0.000000,,2013-10-13 04:43:00,
2013-10-12 23:54:00,70.0,69.0,-100.00,NE,49,0.0,11.0,97,0.00,,,0.99,0.000000,,2013-10-13 04:54:00,